Cruise inventory

Prince Madog PM4DW10

Cruise plan

Cruise Info. 
Ship name (ship code)Prince Madog (74PD)
Cruise identifierPM4DW10
Cruise period1978-05-02 — 1978-05-04
StatusCompleted
Port of departureMenai Bridge, United Kingdom
Port of returnMenai Bridge, United Kingdom
ObjectivesLiverpool Bay Front Survey.
Chief scientistSteven P R Czitrom Baus (University of Wales, Bangor School of Ocean Sciences)
Ocean/sea areas 
GeneralIrish Sea and St. George's Channel
Track chartsPrince Madog PM4DW10 cruise track — trk_livbaysurv.pdf (0.38 MB) 
Measurements 
Physical oceanography 
CTD stationsQuantity: number of stations = 32
Data held at BODC 
Series/Profiles 
32  CTD/STD cast
Salinity of the water column
Temperature of the water column
Vertical spatial coordinates
Salinity of the water column
Temperature of the water column
Vertical spatial coordinates

BODC idDate/TimeLocationDoc.
634551978-05-03 17:04 53° 57' 14" N  3° 40' 8" W  View metadata report for BODC series reference number 63455
634671978-05-03 17:37 53° 57' 7" N  3° 33' 28" W  View metadata report for BODC series reference number 63467
634791978-05-03 18:50 53° 56' 52" N  3° 26' 41" W  View metadata report for BODC series reference number 63479
634801978-05-03 19:25 53° 57' 3" N  3° 19' 22" W  View metadata report for BODC series reference number 63480
634921978-05-03 20:48 54° 4' 22" N  3° 20' 13" W  View metadata report for BODC series reference number 63492
635111978-05-03 21:20 54° 4' 33" N  3° 26' 38" W  View metadata report for BODC series reference number 63511
635231978-05-03 21:55 54° 4' 37" N  3° 32' 24" W  View metadata report for BODC series reference number 63523
635351978-05-03 22:35 54° 5' 13" N  3° 40' 22" W  View metadata report for BODC series reference number 63535
635471978-05-03 23:10 54° 4' 51" N  3° 46' 22" W  View metadata report for BODC series reference number 63547
635591978-05-03 23:50 54° 4' 44" N  3° 52' 47" W  View metadata report for BODC series reference number 63559
635601978-05-04 00:27 54° 4' 37" N  3° 59' 13" W  View metadata report for BODC series reference number 63560
632101978-05-02 14:07 53° 41' 38" N  3° 20' 5" W  View metadata report for BODC series reference number 63210
632221978-05-02 16:00 53° 40' 55" N  3° 33' 18" W  View metadata report for BODC series reference number 63222
632341978-05-02 17:52 53° 41' 20" N  3° 40' 15" W  View metadata report for BODC series reference number 63234
632461978-05-02 18:35 53° 41' 6" N  3° 46' 37" W  View metadata report for BODC series reference number 63246
632581978-05-02 20:35 53° 40' 58" N  3° 53' 20" W  View metadata report for BODC series reference number 63258
632711978-05-02 23:01 53° 33' 14" N  3° 59' 31" W  View metadata report for BODC series reference number 63271
632831978-05-03 00:00 53° 32' 56" N  4° 7' 15" W  View metadata report for BODC series reference number 63283
632951978-05-03 01:20 53° 32' 49" N  3° 54' 18" W  View metadata report for BODC series reference number 63295
633021978-05-03 02:15 53° 32' 42" N  3° 46' 55" W  View metadata report for BODC series reference number 63302
633141978-05-03 03:25 53° 33' 10" N  3° 39' 50" W  View metadata report for BODC series reference number 63314
633261978-05-03 04:08 53° 33' 3" N  3° 33' 14" W  View metadata report for BODC series reference number 63326
633381978-05-03 04:57 53° 33' 7" N  3° 26' 56" W  View metadata report for BODC series reference number 63338
633511978-05-03 06:48 53° 49' 12" N  3° 19' 51" W  View metadata report for BODC series reference number 63351
633631978-05-03 08:00 53° 48' 39" N  3° 34' 4" W  View metadata report for BODC series reference number 63363
633751978-05-03 09:15 53° 49' 4" N  3° 39' 46" W  View metadata report for BODC series reference number 63375
633871978-05-03 09:55 53° 49' 19" N  3° 47' 24" W  View metadata report for BODC series reference number 63387
633991978-05-03 10:47 53° 49' 15" N  3° 53' 42" W  View metadata report for BODC series reference number 63399
634061978-05-03 11:20 53° 49' 8" N  4° 0' 7" W  View metadata report for BODC series reference number 63406
634181978-05-03 12:50 53° 57' 28" N  4° 0' 17" W  View metadata report for BODC series reference number 63418
634311978-05-03 14:47 53° 57' 14" N  3° 54' 7" W  View metadata report for BODC series reference number 63431
634431978-05-03 15:27 53° 57' 7" N  3° 47' 24" W  View metadata report for BODC series reference number 63443